Flight Track Log - Related Links

Times and Time Zones

All times are in EST time to prevent confusion due to time zone crossing. See the NGF42N flight status page for this flight to view local times or setup timezone preferences in your user account.

Time Position Orientation Groundspeed Altitude Reporting Facility
EST Latitude Longitude Course Direction KTS MPH feet Rate Location/Type
Sun 02:39:52 PM 33.1611 -92.8500 203° Southwest 105 121 2,500  Level Fort Worth Center
Sun 02:40:54 PM 33.1283 -92.8683 205° Southwest 107 123 3,200 677 Climbing Fort Worth Center
Sun 02:41:56 PM 33.1011 -92.8817 202° Southwest 107 123 3,900 387 Climbing Fort Worth Center
Sun 02:42:58 PM 33.0747 -92.8972 206° Southwest 106 122 4,000 48 Climbing Fort Worth Center
Sun 02:44:00 PM 33.0136 -92.9246 204° Southwest  Level Estimated
Sun 02:44:00 PM 33.0456 -92.9181 211° Southwest 111 128 4,000  Level Fort Worth Center
Sun 02:44:33 PM 33.0250 -92.9308 208° Southwest 125 144 4,000  Level Fort Worth Center
Sun 02:45:03 PM 33.0147 -92.9358 202° Southwest 117 135 4,000  Level Fort Worth Center
Sun 02:45:46 PM 32.9864 -92.9517 205° Southwest 123 142 4,000  Level Fort Worth Center
Sun 02:46:05 PM 32.9819 -92.9519 183° South 121 139 4,000  Level Fort Worth Center
Sun 02:46:53 PM 32.9500 -92.9697 205° Southwest 131 151 4,000  Level Fort Worth Center
Sun 02:47:07 PM 32.9419 -92.9733 201° Southwest 128 147 4,000  Level Fort Worth Center
Sun 02:47:47 PM 32.9219 -92.9872 210° Southwest 126 145 4,000  Level Fort Worth Center
Sun 02:48:09 PM 32.9106 -92.9914 197° South 126 145 4,000  Level Fort Worth Center
Sun 02:48:48 PM 32.8894 -93.0050 208° Southwest 127 146 4,000  Level Fort Worth Center
Sun 02:49:11 PM 32.8786 -93.0086 196° South 124 143 4,000  Level Fort Worth Center
Sun 02:49:49 PM 32.8592 -93.0203 207° Southwest 124 143 4,000  Level Fort Worth Center
Sun 02:50:13 PM 32.8481 -93.0247 199° South 121 139 4,000  Level Fort Worth Center
Sun 02:50:49 PM 32.8267 -93.0381 208° Southwest 126 145 4,000  Level Fort Worth Center
Sun 02:51:15 PM 32.8150 -93.0417 195° South 126 145 4,000  Level Fort Worth Center
Sun 02:51:50 PM 32.7922 -93.0558 208° Southwest 129 148 4,000  Level Fort Worth Center
Sun 02:52:17 PM 32.7828 -93.0606 203° Southwest 130 150 4,000  Level Fort Worth Center
Sun 02:52:51 PM 32.7619 -93.0736 208° Southwest 126 145 4,000  Level Fort Worth Center
Sun 02:53:19 PM 32.7444 -93.0800 197° South 126 145 4,000  Level Fort Worth Center
Sun 02:53:51 PM 32.7275 -93.0889 204° Southwest 127 146 4,000  Level Fort Worth Center
Sun 02:54:21 PM 32.7117 -93.0983 207° Southwest 129 148 4,000  Level Fort Worth Center
Sun 02:54:59 PM 32.6911 -93.1097 205° Southwest 127 146 4,000 97 Level Fort Worth Center
Sun 02:55:23 PM 32.6783 -93.1156 201° Southwest 127 146 4,100  Climbing Fort Worth Center
Sun 02:55:59 PM 32.6606 -93.1247 203° Southwest 125 144 4,000 -97 Descending Fort Worth Center
Sun 02:56:25 PM 32.6442 -93.1339 205° Southwest 126 145 4,000  Level Fort Worth Center
Sun 02:57:00 PM 32.6283 -93.1425 205° Southwest 127 146 4,000  Level Fort Worth Center
Sun 02:57:28 PM 32.6119 -93.1506 202° Southwest 127 146 4,000  Level Fort Worth Center
Sun 02:58:00 PM 32.5958 -93.1600 206° Southwest 127 146 4,000  Level Fort Worth Center
Sun 02:58:30 PM 32.5775 -93.1694 203° Southwest 126 145 4,000  Level Fort Worth Center
Sun 02:59:01 PM 32.5633 -93.1778 206° Southwest 126 145 4,000  Level Fort Worth Center
Sun 02:59:32 PM 32.5453 -93.1861 201° Southwest 126 145 4,000  Level Fort Worth Center
Sun 03:00:02 PM 32.5289 -93.1956 206° Southwest 122 140 4,000  Level Fort Worth Center
Sun 03:00:34 PM 32.5122 -93.2042 204° Southwest 122 140 4,000 273 Level Fort Worth Center
Sun 03:01:08 PM 32.4967 -93.2133 206° Southwest 120 138 4,300 581 Climbing Fort Worth Center
Sun 03:01:36 PM 32.4831 -93.2203 203° Southwest 117 135 4,600 689 Climbing Fort Worth Center
Sun 03:02:09 PM 32.4703 -93.2256 199° South 106 122 5,000 581 Climbing Fort Worth Center
Sun 03:02:38 PM 32.4575 -93.2325 205° Southwest 101 116 5,200 436 Climbing Fort Worth Center
Sun 03:03:04 PM 32.4458 -93.2375 200° South 99 114 5,400 484 Climbing Fort Worth Center
Sun 03:03:40 PM 32.4289 -93.2453 201° Southwest 103 119 5,700 400 Climbing Fort Worth Center
Sun 03:04:04 PM 32.4194 -93.2497 202° Southwest 103 119 5,800 290 Climbing Fort Worth Center
Sun 03:04:42 PM 32.4017 -93.2572 200° South 104 120 6,000 197 Climbing Fort Worth Center
Sun 03:05:05 PM 32.3886 -93.2622 198° South 116 133 6,000 -97 Level Fort Worth Center
Sun 03:05:44 PM 32.3675 -93.2756 208° Southwest 124 143 5,900  Descending Fort Worth Center
Sun 03:06:18 PM 32.3503 -93.2853 205° Southwest 129 148 6,000  Climbing Fort Worth Center
Sun 03:06:46 PM 32.3367 -93.2961 214° Southwest 127 146 5,900 -162 Descending Fort Worth Center
Sun 03:06:55 PM 32.3322 -93.2967 186° South 125 144 5,900 97 Level Fort Worth Center
Sun 03:07:48 PM 32.3014 -93.3156 207° Southwest 130 150 6,000  Climbing Fort Worth Center
Sun 03:08:01 PM 32.2958 -93.3169 192° South 131 151 5,900 -88 Descending Fort Worth Center
Sun 03:08:56 PM 32.2633 -93.3347 205° Southwest 136 157 5,900  Level Fort Worth Center
Sun 03:09:53 PM 32.2344 -93.3514 206° Southwest 131 151 5,900  Level Fort Worth Center
Sun 03:10:55 PM 32.1989 -93.3694 203° Southwest 129 148 5,900 48 Level Fort Worth Center
Sun 03:11:57 PM 32.1656 -93.3872 204° Southwest 131 151 6,000 48 Climbing Fort Worth Center
Sun 03:12:59 PM 32.1308 -93.4053 204° Southwest 128 147 6,000  Level Fort Worth Center
Sun 03:13:45 PM 32.1103 -93.4139 200° South 130 150 6,000 56 Level Houston Center
Sun 03:14:47 PM 32.0778 -93.4311 204° Southwest 129 148 6,100 -48 Climbing Houston Center
Sun 03:15:49 PM 32.0358 -93.4525 203° Southwest 134 154 5,900 -48 Descending Houston Center
Sun 03:16:51 PM 31.9983 -93.4661 197° South 139 160 6,000 48 Climbing Houston Center
Sun 03:17:53 PM 31.9664 -93.4883 211° Southwest 136 157 6,000 -48 Level Houston Center
Sun 03:18:56 PM 31.9314 -93.5078 205° Southwest 136 157 5,900 -48 Descending Houston Center
Sun 03:19:58 PM 31.8964 -93.5242 202° Southwest 136 157 5,900 94 Level Houston Center
Sun 03:20:00 PM 31.8883 -93.5281 202° Southwest 138 159 6,000 97 Climbing Houston Center
Sun 03:21:00 PM 31.8617 -93.5422 204° Southwest 136 157 6,000  Level Houston Center
Sun 03:21:01 PM 31.8561 -93.5456 207° Southwest 135 155 6,000  Level Houston Center
Sun 03:22:02 PM 31.8206 -93.5644 204° Southwest 136 157 6,000 -50 Level Houston Center
Sun 03:23:02 PM 31.7828 -93.5833 203° Southwest 136 157 5,900 -97 Descending Houston Center
Sun 03:23:04 PM 31.7850 -93.5825 18° North 138 159 5,900  Level Houston Center
Sun 03:24:03 PM 31.7503 -93.6006 204° Southwest 137 158 5,900  Level Houston Center
Sun 03:24:06 PM 31.7533 -93.5992 21° North 134 154 5,900 100 Level Houston Center
Sun 03:25:03 PM 31.7139 -93.6206 205° Southwest 137 158 6,000 97 Climbing Houston Center
Sun 03:25:08 PM 31.7108 -93.6200 171° South 136 157 6,000  Level Houston Center
Sun 03:26:04 PM 31.6794 -93.6381 206° Southwest 136 157 6,000  Level Houston Center
Sun 03:26:10 PM 31.6767 -93.6389 194° South 136 157 6,000 -98 Level Houston Center
Sun 03:27:05 PM 31.6428 -93.6556 203° Southwest 135 155 5,900 -95 Descending Houston Center
Sun 03:27:13 PM 31.6414 -93.6572 226° Southwest 137 158 5,900  Level Houston Center
Sun 03:28:05 PM 31.6103 -93.6728 203° Southwest 136 157 5,900  Level Houston Center
Sun 03:28:15 PM 31.6064 -93.6747 203° Southwest 137 158 5,900  Level Houston Center
Sun 03:29:17 PM 31.5731 -93.6933 205° Southwest 133 153 5,900  Level Houston Center
Sun 03:30:07 PM 31.5411 -93.7100 204° Southwest 136 157 5,900 97 Level Houston Center
Sun 03:30:19 PM 31.5369 -93.7103 183° South 137 158 6,000  Climbing Houston Center
Sun 03:31:07 PM 31.5044 -93.7275 204° Southwest 136 157 5,900 -97 Descending Houston Center
Sun 03:31:21 PM 31.4961 -93.7325 207° Southwest 135 155 5,900 79 Level Houston Center
Sun 03:32:23 PM 31.4614 -93.7492 202° Southwest 135 155 6,000  Climbing Houston Center
Sun 03:33:08 PM 31.4356 -93.7644 207° Southwest 137 158 5,900  Descending Houston Center
Sun 03:33:25 PM 31.4267 -93.7667 192° South 135 155 6,000  Climbing Houston Center
Sun 03:34:09 PM 31.3989 -93.7819 205° Southwest 140 161 5,900 -97 Descending Houston Center
Sun 03:34:27 PM 31.3914 -93.7853 201° Southwest 137 158 5,900  Level Houston Center
Sun 03:35:09 PM 31.3642 -93.7994 204° Southwest 136 157 5,900  Level Houston Center
Sun 03:35:30 PM 31.3569 -93.8025 200° South 136 157 5,900 -98 Level Houston Center
Sun 03:36:10 PM 31.3294 -93.8142 200° South 131 151 5,800 -194 Descending Houston Center
Sun 03:36:32 PM 31.3219 -93.8167 196° South 133 153 5,700 -492 Descending Houston Center
Sun 03:37:11 PM 31.2947 -93.8292 201° Southwest 139 160 5,300 -581 Descending Houston Center
Sun 03:37:34 PM 31.2775 -93.8386 205° Southwest 143 165 5,100 -500 Descending Houston Center
Sun 03:38:11 PM 31.2564 -93.8514 207° Southwest 144 166 4,800 -484 Descending Houston Center
Sun 03:38:36 PM 31.2433 -93.8567 199° South 140 161 4,600 -492 Descending Houston Center
Sun 03:39:12 PM 31.2197 -93.8689 204° Southwest 139 160 4,300 -290 Descending Houston Center
Sun 03:39:38 PM 31.2094 -93.8744 205° Southwest 135 155 4,300 -100 Level Houston Center
Sun 03:40:12 PM 31.1892 -93.8833 201° Southwest 128 147 4,200 -97 Descending Houston Center
Sun 03:40:40 PM 31.1778 -93.8897 206° Southwest 126 145 4,200 -197 Level Houston Center
Sun 03:41:13 PM 31.1564 -93.9006 203° Southwest 121 139 4,000 -290 Descending Houston Center
Sun 03:41:42 PM 31.1450 -93.9067 205° Southwest 124 143 3,900 -393 Descending Houston Center
Sun 03:42:14 PM 31.1239 -93.9175 204° Southwest 127 146 3,600 -387 Descending Houston Center
Sun 03:42:44 PM 31.1117 -93.9242 205° Southwest 128 147 3,500 -200 Descending Houston Center

Login

Don't have an account? Register now (free) for customized features, flight alerts, and more!